aviador You're here:

YPPH Decoded Metar

PERTH in AUSTRALIA
Report Time2017-12-11 05:00:00
UTC Time2017-12-11 05:33:57
Flight Rules vfr VFR
Wind250° at 12 kt
W.Decomp.*RWY 24: 11.7 kt HW 2.5 kt RCW
RWY 21: 8.9 kt HW 8.0 kt RCW
W.Rank250° ranks 16
Current wind is above 250° avg. (10.3)
Visibility9999 m
Phenomena:N/A
Clouds:N/A
Expected CloudBase > 9,600 ft AGL from Temp-Dew spread
CeilingNone
Temp35°C (ISA +20)
Dew Point11°C (23% RH)
Heat Index33.4°C
AAT30.9°C
QNH1006 hPa
Density Alt2,736 ft
Elevation43 ft
Report Wrong Elevation
Raw Report
METAR YPPH 110500Z 25012KT CAVOK 35/11 Q1006
NOSIG=

Extra information for YPPH:More info

Metar Taf Metar & Taf Last 4 Metars F.Rules Stats Wind Profile Meteogram Temp Stats Airport Information Weather charts Add Link Nearby VenuesMetar ALERT Operation Metar Decoded Social comments